createdAt,value
2022-11-03T00:00:12.936Z,11.05
2022-11-03T00:01:12.375Z,11.05
2022-11-03T00:02:12.540Z,11.06
2022-11-03T00:03:12.304Z,11.09
2022-11-03T00:04:12.304Z,11.09
2022-11-03T00:05:12.278Z,11.12
2022-11-03T00:06:12.291Z,11.13
2022-11-03T00:07:12.246Z,11.13
2022-11-03T00:09:12.238Z,11.12
2022-11-03T00:10:12.245Z,11.13
2022-11-03T00:11:12.202Z,11.13
2022-11-03T00:12:12.186Z,11.13
2022-11-03T00:13:12.182Z,11.17
2022-11-03T00:14:12.177Z,11.16
2022-11-03T00:15:12.146Z,11.16
2022-11-03T00:16:12.150Z,11.16
2022-11-03T00:17:12.139Z,11.13
2022-11-03T00:18:12.129Z,11.13
2022-11-03T00:19:12.115Z,11.12
2022-11-03T00:20:12.092Z,11.11
2022-11-03T00:21:12.090Z,11.12
2022-11-03T00:22:12.071Z,11.12
2022-11-03T00:23:12.046Z,11.13
2022-11-03T00:24:12.062Z,11.11
2022-11-03T00:25:12.027Z,11.13
2022-11-03T00:26:12.003Z,11.13
2022-11-03T00:27:12.006Z,11.16
2022-11-03T00:28:11.989Z,11.16
2022-11-03T00:29:11.974Z,11.16
2022-11-03T00:30:11.968Z,11.17
2022-11-03T00:31:11.936Z,11.19
2022-11-03T00:32:11.946Z,11.19
2022-11-03T00:33:11.927Z,11.20
2022-11-03T00:34:11.914Z,11.20
2022-11-03T00:35:11.885Z,11.21
2022-11-03T00:36:11.886Z,11.21
2022-11-03T00:37:11.876Z,11.20
2022-11-03T00:38:11.859Z,11.21
2022-11-03T00:39:11.863Z,11.21
2022-11-03T00:40:11.813Z,11.20
2022-11-03T00:41:11.831Z,11.20
2022-11-03T00:42:11.806Z,11.17
2022-11-03T00:43:11.798Z,11.17
2022-11-03T00:44:11.783Z,11.17
2022-11-03T00:45:11.777Z,11.17
2022-11-03T00:46:11.741Z,11.16
2022-11-03T00:47:11.737Z,11.19
2022-11-03T00:48:11.740Z,11.19
2022-11-03T00:49:11.746Z,11.19
2022-11-03T00:50:11.681Z,11.19
2022-11-03T00:51:11.669Z,11.19
2022-11-03T00:52:11.666Z,11.19
2022-11-03T00:53:11.664Z,11.17
2022-11-03T00:54:11.668Z,11.19
2022-11-03T00:55:11.634Z,11.20
2022-11-03T00:56:11.609Z,11.21
2022-11-03T00:57:11.621Z,11.19
2022-11-03T00:58:11.596Z,11.21
2022-11-03T00:59:11.590Z,11.20
2022-11-03T01:00:11.575Z,11.20
2022-11-03T01:01:11.655Z,11.21
2022-11-03T01:02:11.742Z,11.20
2022-11-03T01:03:11.536Z,11.20
2022-11-03T01:04:11.507Z,11.21
2022-11-03T01:05:11.510Z,11.21
2022-11-03T01:06:11.492Z,11.20
2022-11-03T01:07:11.480Z,11.20
2022-11-03T01:08:11.475Z,11.20
2022-11-03T01:09:11.453Z,11.19
2022-11-03T01:10:11.451Z,11.17
2022-11-03T01:11:11.433Z,11.17
2022-11-03T01:12:11.400Z,11.19
2022-11-03T01:13:11.398Z,11.19
2022-11-03T01:14:11.391Z,11.17
2022-11-03T01:15:11.380Z,11.17
2022-11-03T01:16:11.337Z,11.17
2022-11-03T01:17:11.346Z,11.17
2022-11-03T01:18:11.329Z,11.16
2022-11-03T01:19:11.322Z,11.19
2022-11-03T01:20:11.320Z,11.17
2022-11-03T01:21:11.298Z,11.19
2022-11-03T01:22:11.499Z,11.17
2022-11-03T01:23:11.258Z,11.16
2022-11-03T01:24:11.267Z,11.13
2022-11-03T01:25:11.268Z,11.16
2022-11-03T01:26:11.227Z,11.13
2022-11-03T01:27:11.229Z,11.12
2022-11-03T01:28:11.193Z,11.13
2022-11-03T01:29:11.176Z,11.13
2022-11-03T01:30:11.191Z,11.12
2022-11-03T01:31:11.188Z,11.11
2022-11-03T01:32:11.132Z,11.13
2022-11-03T01:33:11.136Z,11.13
2022-11-03T01:34:11.118Z,11.13
2022-11-03T01:35:11.116Z,11.13
2022-11-03T01:36:11.080Z,11.16
2022-11-03T01:37:11.088Z,11.13
2022-11-03T01:38:11.056Z,11.16
2022-11-03T01:39:11.051Z,11.13
2022-11-03T01:40:11.045Z,11.13
2022-11-03T01:41:11.015Z,11.12
2022-11-03T01:42:11.027Z,11.11
2022-11-03T01:43:11.020Z,11.11
2022-11-03T01:44:10.980Z,11.11
2022-11-03T01:45:10.983Z,11.09
2022-11-03T01:46:10.954Z,11.08
2022-11-03T01:47:10.967Z,11.05
2022-11-03T01:48:10.941Z,11.06
2022-11-03T01:49:10.914Z,11.06
2022-11-03T01:50:10.924Z,11.08
2022-11-03T01:51:10.898Z,11.08
2022-11-03T01:52:10.886Z,11.08
2022-11-03T01:53:10.876Z,11.08
2022-11-03T01:54:10.875Z,11.05
2022-11-03T01:55:10.844Z,11.06
2022-11-03T01:56:10.821Z,11.06
2022-11-03T01:57:10.826Z,11.09
2022-11-03T01:58:10.809Z,11.06
2022-11-03T01:59:10.803Z,11.05
2022-11-03T02:00:10.796Z,11.03
2022-11-03T02:01:10.893Z,11.03
2022-11-03T02:02:10.929Z,11.02
2022-11-03T02:03:10.737Z,11.02
2022-11-03T02:04:10.721Z,11.02
2022-11-03T02:05:10.743Z,11.01
2022-11-03T02:06:10.705Z,11.02
2022-11-03T02:07:10.680Z,10.99
2022-11-03T02:08:10.685Z,11.01
2022-11-03T02:09:10.663Z,11.01
2022-11-03T02:10:10.652Z,10.99
2022-11-03T02:11:10.623Z,10.99
2022-11-03T02:12:10.635Z,10.98
2022-11-03T02:13:10.623Z,10.99
2022-11-03T02:14:10.602Z,11.01
2022-11-03T02:15:10.615Z,11.02
2022-11-03T02:16:10.577Z,10.99
2022-11-03T02:17:10.569Z,11.02
2022-11-03T02:18:10.529Z,11.02
2022-11-03T02:19:10.529Z,11.01
2022-11-03T02:20:10.532Z,10.98
2022-11-03T02:21:10.513Z,10.98
2022-11-03T02:22:10.493Z,10.98
2022-11-03T02:23:10.591Z,10.95
2022-11-03T02:24:10.458Z,10.95
2022-11-03T02:25:10.474Z,10.95
2022-11-03T02:26:10.438Z,10.94
2022-11-03T02:27:10.431Z,10.95
2022-11-03T02:28:10.420Z,10.94
2022-11-03T02:29:10.389Z,10.94
2022-11-03T02:30:10.392Z,10.94
2022-11-03T02:31:10.395Z,10.93
2022-11-03T02:32:10.359Z,10.93
2022-11-03T02:33:10.337Z,10.94
2022-11-03T02:34:10.327Z,10.93
2022-11-03T02:35:10.328Z,10.93
2022-11-03T02:36:10.319Z,10.98
2022-11-03T02:37:10.300Z,10.94
2022-11-03T02:38:10.273Z,10.95
2022-11-03T02:39:10.271Z,10.98
2022-11-03T02:40:10.254Z,10.98
2022-11-03T02:41:10.255Z,10.98
2022-11-03T02:42:10.229Z,10.98
2022-11-03T02:43:10.231Z,10.95
2022-11-03T02:44:10.210Z,10.95
2022-11-03T02:45:13.297Z,10.94
2022-11-03T02:46:11.198Z,10.95
2022-11-03T02:47:10.192Z,10.95
2022-11-03T02:48:10.157Z,10.98
2022-11-03T02:49:10.126Z,10.94
2022-11-03T02:50:10.150Z,10.94
2022-11-03T02:51:10.130Z,10.95
2022-11-03T02:52:10.121Z,10.95
2022-11-03T02:53:10.092Z,10.98
2022-11-03T02:54:10.069Z,11.01
2022-11-03T02:55:10.075Z,11.01
2022-11-03T02:56:10.051Z,11.02
2022-11-03T02:57:10.047Z,11.02
2022-11-03T02:58:10.022Z,11.01
2022-11-03T02:59:10.020Z,10.99
2022-11-03T03:00:09.989Z,10.98
2022-11-03T03:01:10.041Z,11.01
2022-11-03T03:02:10.171Z,10.99
2022-11-03T03:03:10.054Z,11.01
2022-11-03T03:04:09.945Z,11.01
2022-11-03T03:05:09.923Z,10.99
2022-11-03T03:06:09.905Z,10.99
2022-11-03T03:07:09.924Z,10.98
2022-11-03T03:08:09.887Z,10.95
2022-11-03T03:09:09.900Z,10.95
2022-11-03T03:10:09.853Z,10.95
2022-11-03T03:11:09.855Z,10.95
2022-11-03T03:12:09.839Z,10.95
2022-11-03T03:13:09.965Z,10.95
2022-11-03T03:14:09.805Z,10.95
2022-11-03T03:15:09.822Z,10.98
2022-11-03T03:16:09.806Z,10.98
2022-11-03T03:17:09.769Z,10.94
2022-11-03T03:18:09.777Z,10.98
2022-11-03T03:19:09.749Z,10.98
2022-11-03T03:20:09.755Z,10.98
2022-11-03T03:21:09.711Z,10.99
2022-11-03T03:22:09.706Z,11.01
2022-11-03T03:23:11.697Z,10.99
2022-11-03T03:24:09.688Z,10.99
2022-11-03T03:25:09.674Z,10.99
2022-11-03T03:26:09.656Z,10.98
2022-11-03T03:27:09.643Z,10.95
2022-11-03T03:28:09.653Z,10.98
2022-11-03T03:29:09.600Z,10.98
2022-11-03T03:30:18.169Z,10.99
2022-11-03T03:31:17.157Z,10.98
2022-11-03T03:32:09.581Z,10.99
2022-11-03T03:33:10.129Z,11.01
2022-11-03T03:34:31.276Z,11.01
2022-11-03T03:35:10.558Z,11.01
2022-11-03T03:36:09.528Z,11.01
2022-11-03T03:37:09.516Z,11.01
2022-11-03T03:38:09.641Z,11.02
2022-11-03T03:39:09.484Z,11.01
2022-11-03T03:40:09.487Z,11.03
2022-11-03T03:41:10.877Z,11.01
2022-11-03T03:42:09.436Z,11.02
2022-11-03T03:43:09.444Z,11.01
2022-11-03T03:44:09.414Z,11.01
2022-11-03T03:45:09.403Z,10.99
2022-11-03T03:46:09.406Z,10.99
2022-11-03T03:47:09.377Z,10.99
2022-11-03T03:48:09.724Z,10.99
2022-11-03T03:49:09.363Z,11.01
2022-11-03T03:50:09.346Z,11.01
2022-11-03T03:51:09.322Z,11.01
2022-11-03T03:52:09.324Z,11.01
2022-11-03T03:53:09.324Z,11.01
2022-11-03T03:54:09.278Z,11.01
2022-11-03T03:55:09.285Z,11.01
2022-11-03T03:56:09.249Z,11.01
2022-11-03T03:57:09.250Z,11.02
2022-11-03T03:58:09.471Z,11.03
2022-11-03T03:59:09.233Z,11.02
2022-11-03T04:00:09.203Z,11.03
2022-11-03T04:01:09.230Z,11.03
2022-11-03T04:02:09.345Z,11.03
2022-11-03T04:03:09.192Z,11.03
2022-11-03T04:04:09.164Z,11.03
2022-11-03T04:05:09.174Z,11.06
2022-11-03T04:06:09.136Z,11.03
2022-11-03T04:07:09.119Z,11.03
2022-11-03T04:08:09.288Z,11.02
2022-11-03T04:09:09.088Z,11.01
2022-11-03T04:10:09.081Z,11.01
2022-11-03T04:11:09.064Z,10.99
2022-11-03T04:12:09.054Z,10.98
2022-11-03T04:13:09.061Z,10.95
2022-11-03T04:14:09.039Z,10.95
2022-11-03T04:15:09.007Z,10.94
2022-11-03T04:16:08.989Z,10.95
2022-11-03T04:17:08.994Z,10.95
2022-11-03T04:18:09.245Z,10.94
2022-11-03T04:19:08.970Z,10.93
2022-11-03T04:20:08.937Z,10.95
2022-11-03T04:21:08.926Z,10.94
2022-11-03T04:22:08.940Z,10.98
2022-11-03T04:23:08.917Z,10.95
2022-11-03T04:24:08.903Z,10.95
2022-11-03T04:25:08.891Z,10.98
2022-11-03T04:26:08.856Z,10.98
2022-11-03T04:27:08.870Z,10.95
2022-11-03T04:28:09.023Z,10.95
2022-11-03T04:29:08.826Z,10.98
2022-11-03T04:30:08.814Z,10.98
2022-11-03T04:31:08.813Z,10.99
2022-11-03T04:32:08.785Z,10.98
2022-11-03T04:33:08.797Z,10.99
2022-11-03T04:34:08.764Z,10.99
2022-11-03T04:35:08.744Z,10.98
2022-11-03T04:36:08.748Z,11.01
2022-11-03T04:37:08.736Z,10.98
2022-11-03T04:38:09.123Z,10.99
2022-11-03T04:39:08.695Z,11.01
2022-11-03T04:40:08.696Z,11.01
2022-11-03T04:41:08.682Z,11.01
2022-11-03T04:42:08.666Z,11.02
2022-11-03T04:43:08.998Z,11.02
2022-11-03T04:44:08.635Z,10.99
2022-11-03T04:45:08.626Z,11.02
2022-11-03T04:46:08.604Z,11.01
2022-11-03T04:47:08.607Z,11.03
2022-11-03T04:48:08.596Z,11.01
2022-11-03T04:49:08.582Z,11.03
2022-11-03T04:50:08.555Z,11.03
2022-11-03T04:51:08.552Z,11.05
2022-11-03T04:52:08.538Z,11.05
2022-11-03T04:53:08.953Z,11.06
2022-11-03T04:54:08.504Z,11.08
2022-11-03T04:55:08.502Z,11.11
2022-11-03T04:56:08.501Z,11.12
2022-11-03T04:57:08.477Z,11.12
2022-11-03T04:58:08.442Z,11.12
2022-11-03T04:59:08.465Z,11.11
2022-11-03T05:00:08.434Z,11.13
2022-11-03T05:01:08.456Z,11.13
2022-11-03T05:03:08.842Z,11.12
2022-11-03T05:04:08.381Z,11.12
2022-11-03T05:05:08.375Z,11.13
2022-11-03T05:06:08.345Z,11.16
2022-11-03T05:07:08.353Z,11.16
2022-11-03T05:08:08.344Z,11.17
2022-11-03T05:09:08.321Z,11.20
2022-11-03T05:10:08.296Z,11.17
2022-11-03T05:11:08.292Z,11.20
2022-11-03T05:12:08.283Z,11.20
2022-11-03T05:13:08.535Z,11.20
2022-11-03T05:14:08.281Z,11.21
2022-11-03T05:15:08.225Z,11.21
2022-11-03T05:16:08.215Z,11.21
2022-11-03T05:17:08.196Z,11.20
2022-11-03T05:18:08.253Z,11.21
2022-11-03T05:19:08.183Z,11.21
2022-11-03T05:20:08.178Z,11.21
2022-11-03T05:21:08.170Z,11.20
2022-11-03T05:22:08.151Z,11.21
2022-11-03T05:23:08.489Z,11.23
2022-11-03T05:24:08.160Z,11.23
2022-11-03T05:25:08.108Z,11.23
2022-11-03T05:26:08.102Z,11.24
2022-11-03T05:27:08.066Z,11.24
2022-11-03T05:29:06.792Z,11.27
2022-11-03T05:30:06.768Z,11.26
2022-11-03T05:31:06.758Z,11.27
2022-11-03T05:32:06.728Z,11.28
2022-11-03T05:33:06.731Z,11.28
2022-11-03T05:34:06.719Z,11.30
2022-11-03T05:35:06.724Z,11.27
2022-11-03T05:36:06.679Z,11.28
2022-11-03T05:37:06.668Z,11.30
2022-11-03T05:38:06.931Z,11.31
2022-11-03T05:39:06.660Z,11.31
2022-11-03T05:40:06.659Z,11.30
2022-11-03T05:41:06.614Z,11.30
2022-11-03T05:42:06.617Z,11.31
2022-11-03T05:43:12.006Z,11.30
2022-11-03T05:44:07.575Z,11.31
2022-11-03T05:45:06.577Z,11.33
2022-11-03T05:47:08.349Z,11.33
2022-11-03T05:48:06.938Z,11.33
2022-11-03T05:49:06.517Z,11.33
2022-11-03T05:50:06.515Z,11.33
2022-11-03T05:51:06.485Z,11.35
2022-11-03T05:52:06.478Z,11.35
2022-11-03T05:53:06.489Z,11.36
2022-11-03T05:54:06.458Z,11.38
2022-11-03T05:55:06.448Z,11.38
2022-11-03T05:56:06.426Z,11.41
2022-11-03T05:57:06.412Z,11.41
2022-11-03T05:58:06.657Z,11.42
2022-11-03T05:59:06.398Z,11.44
2022-11-03T06:00:06.382Z,11.44
2022-11-03T06:01:06.369Z,11.44
2022-11-03T06:02:06.474Z,11.44
2022-11-03T06:03:06.327Z,11.45
2022-11-03T06:04:06.329Z,11.45
2022-11-03T06:05:06.337Z,11.44
2022-11-03T06:06:06.294Z,11.44
2022-11-03T06:07:06.288Z,11.44
2022-11-03T06:08:06.653Z,11.44
2022-11-03T06:09:06.277Z,11.45
2022-11-03T06:10:06.253Z,11.44
2022-11-03T06:11:06.232Z,11.45
2022-11-03T06:12:06.205Z,11.45
2022-11-03T06:13:06.480Z,11.46
2022-11-03T06:14:06.197Z,11.46
2022-11-03T06:15:06.191Z,11.49
2022-11-03T06:16:06.179Z,11.49
2022-11-03T06:17:06.257Z,11.48
2022-11-03T06:18:06.162Z,11.49
2022-11-03T06:19:06.136Z,11.46
2022-11-03T06:20:06.122Z,11.46
2022-11-03T06:21:06.092Z,11.46
2022-11-03T06:22:06.096Z,11.45
2022-11-03T06:23:06.459Z,11.45
2022-11-03T06:24:06.073Z,11.45
2022-11-03T06:25:06.071Z,11.44
2022-11-03T06:26:06.055Z,11.44
2022-11-03T06:27:06.036Z,11.44
2022-11-03T06:28:06.021Z,11.44
2022-11-03T06:29:05.992Z,11.42
2022-11-03T06:30:06.033Z,11.41
2022-11-03T06:31:05.967Z,11.39
2022-11-03T06:32:05.950Z,11.41
2022-11-03T06:33:06.332Z,11.41
2022-11-03T06:34:05.934Z,11.39
2022-11-03T06:35:05.930Z,11.42
2022-11-03T06:36:05.903Z,11.41
2022-11-03T06:37:10.955Z,11.41
2022-11-03T06:38:06.888Z,11.41
2022-11-03T06:39:05.863Z,11.39
2022-11-03T06:40:05.858Z,11.42
2022-11-03T06:41:05.854Z,11.39
2022-11-03T06:42:05.830Z,11.41
2022-11-03T06:43:06.099Z,11.41
2022-11-03T06:44:05.787Z,11.41
2022-11-03T06:45:05.798Z,11.42
2022-11-03T06:46:05.779Z,11.42
2022-11-03T06:47:05.770Z,11.44
2022-11-03T06:48:05.746Z,11.41
2022-11-03T06:49:05.726Z,11.44
2022-11-03T06:50:05.738Z,11.44
2022-11-03T06:51:05.697Z,11.42
2022-11-03T06:52:05.700Z,11.44
2022-11-03T06:53:06.139Z,11.45
2022-11-03T06:54:05.657Z,11.45
2022-11-03T06:55:05.679Z,11.45
2022-11-03T06:56:05.650Z,11.45
2022-11-03T06:57:05.617Z,11.45
2022-11-03T06:58:05.606Z,11.44
2022-11-03T06:59:05.625Z,11.44
2022-11-03T07:00:28.677Z,11.45
2022-11-03T07:01:06.663Z,11.45
2022-11-03T07:02:05.682Z,11.45
2022-11-03T07:03:05.951Z,11.46
2022-11-03T07:04:05.558Z,11.46
2022-11-03T07:05:05.524Z,11.45
2022-11-03T07:06:05.515Z,11.44
2022-11-03T07:07:05.516Z,11.42
2022-11-03T07:08:05.483Z,11.42
2022-11-03T07:09:05.573Z,11.42
2022-11-03T07:10:05.446Z,11.41
2022-11-03T07:11:05.437Z,11.39
2022-11-03T07:12:05.423Z,11.39
2022-11-03T07:13:07.189Z,11.38
2022-11-03T07:14:05.436Z,11.39
2022-11-03T07:16:05.455Z,11.38
2022-11-03T07:17:05.355Z,11.36
2022-11-03T07:18:05.781Z,11.38
2022-11-03T07:19:05.348Z,11.38
2022-11-03T07:20:05.340Z,11.38
2022-11-03T07:21:05.318Z,11.39
2022-11-03T07:22:05.300Z,11.39
2022-11-03T07:23:05.326Z,11.41
2022-11-03T07:24:05.281Z,11.42
2022-11-03T07:25:05.265Z,11.45
2022-11-03T07:26:05.277Z,11.44
2022-11-03T07:27:05.252Z,11.46
2022-11-03T07:28:05.700Z,11.49
2022-11-03T07:29:05.201Z,11.53
2022-11-03T07:30:05.217Z,11.54
2022-11-03T07:31:05.182Z,11.57
2022-11-03T07:32:05.174Z,11.62
2022-11-03T07:33:05.162Z,11.63
2022-11-03T07:34:05.141Z,11.64
2022-11-03T07:35:05.153Z,11.69
2022-11-03T07:36:20.471Z,11.72
2022-11-03T07:37:06.153Z,11.72
2022-11-03T07:38:05.376Z,11.75
2022-11-03T07:39:05.088Z,11.77
2022-11-03T07:40:05.070Z,11.79
2022-11-03T07:41:05.054Z,11.82
2022-11-03T07:42:05.031Z,11.85
2022-11-03T07:43:05.041Z,11.87
2022-11-03T07:44:05.021Z,11.88
2022-11-03T07:45:05.043Z,11.93
2022-11-03T07:46:05.004Z,11.96
2022-11-03T07:47:04.967Z,11.98
2022-11-03T07:48:05.034Z,12.01
2022-11-03T07:49:04.953Z,12.04
2022-11-03T07:50:04.959Z,12.11
2022-11-03T07:51:04.909Z,12.15
2022-11-03T07:52:04.900Z,12.18
2022-11-03T07:53:04.902Z,12.21
2022-11-03T07:54:04.871Z,12.25
2022-11-03T07:55:04.887Z,12.29
2022-11-03T07:56:04.914Z,12.30
2022-11-03T07:57:04.953Z,12.31
2022-11-03T07:58:05.166Z,12.36
2022-11-03T07:59:04.807Z,12.36
2022-11-03T08:00:08.926Z,12.40
2022-11-03T08:01:05.791Z,12.40
2022-11-03T08:02:04.919Z,12.43
2022-11-03T08:03:05.143Z,12.44
2022-11-03T08:04:04.760Z,12.44
2022-11-03T08:05:04.790Z,12.44
2022-11-03T08:06:06.207Z,12.44
2022-11-03T08:07:04.728Z,12.43
2022-11-03T08:08:05.096Z,12.43
2022-11-03T08:09:04.699Z,12.41
2022-11-03T08:10:04.673Z,12.41
2022-11-03T08:11:04.722Z,12.41
2022-11-03T08:12:04.646Z,12.40
2022-11-03T08:13:05.021Z,12.40
2022-11-03T08:14:04.627Z,12.41
2022-11-03T08:15:04.624Z,12.41
2022-11-03T08:16:04.586Z,12.40
2022-11-03T08:17:04.586Z,12.41
2022-11-03T08:18:04.566Z,12.40
2022-11-03T08:19:04.556Z,12.41
2022-11-03T08:20:04.555Z,12.41
2022-11-03T08:21:04.540Z,12.41
2022-11-03T08:22:04.527Z,12.43
2022-11-03T08:23:24.784Z,12.43
2022-11-03T08:24:05.496Z,12.43
2022-11-03T08:25:04.507Z,12.41
2022-11-03T08:26:04.526Z,12.43
2022-11-03T08:27:04.454Z,12.43
2022-11-03T08:28:04.458Z,12.43
2022-11-03T08:29:04.434Z,12.44
2022-11-03T08:30:04.430Z,12.46
2022-11-03T08:31:08.016Z,12.46
2022-11-03T08:32:05.409Z,12.49
2022-11-03T08:33:04.745Z,12.49
2022-11-03T08:34:04.371Z,12.51
2022-11-03T08:35:04.342Z,12.52
2022-11-03T08:36:04.356Z,12.55
2022-11-03T08:37:04.346Z,12.55
2022-11-03T08:38:04.712Z,12.55
2022-11-03T08:39:04.295Z,12.58
2022-11-03T08:40:04.305Z,12.58
2022-11-03T08:41:04.273Z,12.59
2022-11-03T08:42:04.269Z,12.62
2022-11-03T08:43:04.246Z,12.63
2022-11-03T08:44:04.229Z,12.62
2022-11-03T08:45:04.234Z,12.66
2022-11-03T08:46:13.952Z,12.66
2022-11-03T08:47:05.191Z,12.67
2022-11-03T08:48:04.464Z,12.70
2022-11-03T08:49:04.155Z,12.74
2022-11-03T08:50:04.159Z,12.74
2022-11-03T08:51:04.130Z,12.77
2022-11-03T08:52:04.144Z,12.79
2022-11-03T08:53:04.108Z,12.81
2022-11-03T08:54:04.112Z,12.85
2022-11-03T08:55:04.113Z,12.85
2022-11-03T08:56:04.141Z,12.87
2022-11-03T08:57:04.051Z,12.89
2022-11-03T08:58:04.372Z,12.94
2022-11-03T08:59:04.042Z,12.96
2022-11-03T09:00:04.035Z,12.99
2022-11-03T09:01:04.034Z,13.01
2022-11-03T09:02:04.077Z,13.06
2022-11-03T09:03:04.183Z,13.09
2022-11-03T09:04:04.138Z,13.13
2022-11-03T09:05:03.970Z,13.14
2022-11-03T09:06:03.947Z,13.17
2022-11-03T09:07:03.941Z,13.21
2022-11-03T09:10:22.251Z,13.27
2022-11-03T09:11:04.881Z,13.29
2022-11-03T09:12:04.092Z,13.32
2022-11-03T09:13:04.162Z,13.32
2022-11-03T09:14:03.832Z,13.35
2022-11-03T09:15:03.833Z,13.35
2022-11-03T09:16:03.830Z,13.35
2022-11-03T09:18:03.995Z,13.38
2022-11-03T09:19:03.813Z,13.41
2022-11-03T09:20:03.801Z,13.41
2022-11-03T09:21:03.757Z,13.43
2022-11-03T09:22:03.717Z,13.44
2022-11-03T09:23:03.721Z,13.44
2022-11-03T09:24:03.697Z,13.44
2022-11-03T09:25:03.709Z,13.44
2022-11-03T09:26:03.675Z,13.43
2022-11-03T09:27:03.692Z,13.44
2022-11-03T09:28:03.809Z,13.44
2022-11-03T09:29:03.647Z,13.44
2022-11-03T09:30:17.989Z,13.43
2022-11-03T09:31:04.617Z,13.44
2022-11-03T09:32:03.603Z,13.44
2022-11-03T09:33:03.598Z,13.46
2022-11-03T09:34:03.578Z,13.46
2022-11-03T09:35:03.586Z,13.47
2022-11-03T09:36:03.561Z,13.48
2022-11-03T09:37:03.548Z,13.48
2022-11-03T09:38:03.660Z,13.51
2022-11-03T09:39:03.494Z,13.51
2022-11-03T09:40:03.528Z,13.53
2022-11-03T09:41:09.657Z,13.54
2022-11-03T09:42:04.469Z,13.55
2022-11-03T09:43:03.464Z,13.55
2022-11-03T09:44:03.448Z,13.57
2022-11-03T09:45:03.423Z,13.59
2022-11-03T09:46:03.414Z,13.59
2022-11-03T09:47:03.440Z,13.59
2022-11-03T09:48:03.428Z,13.61
2022-11-03T09:49:03.365Z,13.63
2022-11-03T09:50:03.389Z,13.63
2022-11-03T09:51:03.350Z,13.65
2022-11-03T09:52:03.336Z,13.63
2022-11-03T09:53:03.346Z,13.65
2022-11-03T09:54:03.316Z,13.68
2022-11-03T09:55:03.329Z,13.68
2022-11-03T09:56:03.314Z,13.68
2022-11-03T09:57:03.293Z,13.68
2022-11-03T09:58:03.436Z,13.66
2022-11-03T09:59:03.232Z,13.65
2022-11-03T10:00:03.317Z,13.66
2022-11-03T10:01:03.255Z,13.65
2022-11-03T10:02:03.382Z,13.61
2022-11-03T10:03:03.233Z,13.57
2022-11-03T10:04:03.190Z,13.55
2022-11-03T10:05:08.260Z,13.54
2022-11-03T10:06:04.153Z,13.53
2022-11-03T10:07:03.181Z,13.51
2022-11-03T10:08:03.183Z,13.51
2022-11-03T10:09:03.114Z,13.50
2022-11-03T10:10:03.130Z,13.51
2022-11-03T10:11:03.123Z,13.51
2022-11-03T10:12:04.018Z,13.50
2022-11-03T10:13:03.058Z,13.50
2022-11-03T10:14:03.038Z,13.51
2022-11-03T10:15:03.030Z,13.51
2022-11-03T10:16:03.030Z,13.50
2022-11-03T10:17:03.953Z,13.50
2022-11-03T10:18:02.979Z,13.50
2022-11-03T10:19:03.048Z,13.51
2022-11-03T10:20:02.980Z,13.53
2022-11-03T10:21:02.972Z,13.53
2022-11-03T10:22:02.930Z,13.54
2022-11-03T10:23:02.910Z,13.55
2022-11-03T10:24:02.935Z,13.57
2022-11-03T10:25:02.923Z,13.57
2022-11-03T10:26:02.905Z,13.59
2022-11-03T10:27:02.874Z,13.59
2022-11-03T10:28:02.858Z,13.57
2022-11-03T10:29:02.829Z,13.59
2022-11-03T10:30:02.905Z,13.61
2022-11-03T10:31:18.268Z,13.62
2022-11-03T10:32:03.860Z,13.63
2022-11-03T10:33:02.830Z,13.66
2022-11-03T10:34:03.737Z,13.69
2022-11-03T10:35:02.766Z,13.71
2022-11-03T10:36:02.757Z,13.73
2022-11-03T10:37:02.727Z,13.75
2022-11-03T10:38:02.718Z,13.75
2022-11-03T10:39:02.706Z,13.76
2022-11-03T10:40:02.710Z,13.79
2022-11-03T10:41:03.440Z,13.79
2022-11-03T10:42:02.732Z,13.81
2022-11-03T10:43:02.671Z,13.83
2022-11-03T10:44:02.650Z,13.84
2022-11-03T10:45:02.650Z,13.86
2022-11-03T10:46:02.619Z,13.86
2022-11-03T10:47:02.597Z,13.87
2022-11-03T10:48:02.601Z,13.88
2022-11-03T10:49:02.658Z,13.88
2022-11-03T10:50:02.631Z,13.90
2022-11-03T10:51:02.561Z,13.88
2022-11-03T10:52:02.599Z,13.91
2022-11-03T10:53:02.563Z,13.90
2022-11-03T10:54:02.522Z,13.93
2022-11-03T10:55:02.551Z,13.94
2022-11-03T10:56:02.485Z,13.94
2022-11-03T10:57:02.470Z,13.94
2022-11-03T10:58:02.462Z,13.94
2022-11-03T10:59:02.449Z,13.96
2022-11-03T11:00:02.465Z,13.98
2022-11-03T11:01:02.447Z,13.98
2022-11-03T11:02:02.740Z,13.99
2022-11-03T11:03:02.403Z,13.98
2022-11-03T11:04:02.427Z,14.01
2022-11-03T11:05:02.475Z,14.01
2022-11-03T11:06:02.387Z,14.01
2022-11-03T11:07:02.390Z,14.02
2022-11-03T11:08:02.455Z,14.01
2022-11-03T11:09:02.383Z,14.04
2022-11-03T11:10:02.337Z,14.02
2022-11-03T11:11:02.305Z,14.05
2022-11-03T11:12:02.301Z,14.04
2022-11-03T11:13:02.268Z,14.04
2022-11-03T11:14:02.266Z,14.04
2022-11-03T11:15:02.291Z,14.05
2022-11-03T11:16:02.222Z,14.06
2022-11-03T11:17:02.212Z,14.06
2022-11-03T11:18:02.227Z,14.06
2022-11-03T11:19:02.297Z,14.05
2022-11-03T11:20:02.956Z,14.05
2022-11-03T11:21:02.514Z,14.06
2022-11-03T11:22:02.161Z,14.05
2022-11-03T11:23:02.185Z,14.04
2022-11-03T11:24:02.168Z,14.04
2022-11-03T11:25:02.246Z,14.05
2022-11-03T11:26:03.096Z,14.04
2022-11-03T11:27:02.357Z,14.06
2022-11-03T11:28:02.122Z,14.06
2022-11-03T11:29:02.061Z,14.09
2022-11-03T11:30:02.094Z,14.09
2022-11-03T11:31:02.024Z,14.11
2022-11-03T11:32:02.107Z,14.16
2022-11-03T11:33:02.017Z,14.19
2022-11-03T11:34:02.004Z,14.20
2022-11-03T11:35:02.084Z,14.20
2022-11-03T11:36:01.963Z,14.20
2022-11-03T11:37:01.952Z,14.21
2022-11-03T11:38:01.974Z,14.20
2022-11-03T11:39:01.961Z,14.21
2022-11-03T11:40:01.928Z,14.21
2022-11-03T11:41:01.921Z,14.21
2022-11-03T11:42:01.920Z,14.21
2022-11-03T11:43:01.870Z,14.20
2022-11-03T11:44:01.954Z,14.20
2022-11-03T11:45:01.908Z,14.19
2022-11-03T11:46:01.843Z,14.19
2022-11-03T11:47:01.877Z,14.17
2022-11-03T11:48:01.836Z,14.16
2022-11-03T11:49:01.811Z,14.12
2022-11-03T11:50:01.813Z,14.11
2022-11-03T11:51:01.774Z,14.11
2022-11-03T11:52:01.772Z,14.06
2022-11-03T11:53:01.796Z,14.08
2022-11-03T11:54:17.050Z,14.05
2022-11-03T11:55:02.732Z,14.05
2022-11-03T11:56:01.738Z,14.02
2022-11-03T11:57:01.735Z,13.99
2022-11-03T11:58:01.736Z,13.99
2022-11-03T11:59:01.742Z,13.99
2022-11-03T12:00:02.447Z,13.99
2022-11-03T12:01:01.640Z,13.98
2022-11-03T12:02:01.674Z,13.99
2022-11-03T12:03:01.692Z,13.99
2022-11-03T12:04:01.739Z,14.01
2022-11-03T12:05:01.640Z,14.01
2022-11-03T12:06:01.587Z,14.01
2022-11-03T12:07:01.572Z,13.98
2022-11-03T12:08:01.572Z,13.98
2022-11-03T12:09:01.551Z,13.98
2022-11-03T12:10:01.549Z,13.94
2022-11-03T12:11:01.566Z,13.93
2022-11-03T12:12:07.126Z,13.93
2022-11-03T12:13:02.589Z,13.91
2022-11-03T12:14:01.486Z,13.91
2022-11-03T12:15:01.506Z,13.91
2022-11-03T12:16:11.826Z,13.90
2022-11-03T12:17:01.420Z,13.93
2022-11-03T12:18:01.442Z,13.94
2022-11-03T12:19:02.268Z,13.96
2022-11-03T12:20:01.420Z,13.99
2022-11-03T12:21:01.394Z,14.01
2022-11-03T12:22:01.522Z,14.04
2022-11-03T12:23:01.359Z,14.04
2022-11-03T12:24:01.371Z,14.05
2022-11-03T12:25:01.362Z,14.04
2022-11-03T12:26:01.313Z,14.04
2022-11-03T12:27:01.359Z,14.05
2022-11-03T12:28:01.306Z,14.05
2022-11-03T12:29:01.297Z,14.05
2022-11-03T12:30:01.282Z,14.05
2022-11-03T12:31:01.284Z,14.06
2022-11-03T12:32:01.248Z,14.05
2022-11-03T12:33:01.224Z,14.06
2022-11-03T12:34:01.269Z,14.06
2022-11-03T12:35:01.199Z,14.05
2022-11-03T12:36:01.216Z,14.04
2022-11-03T12:37:01.192Z,14.05
2022-11-03T12:38:01.172Z,14.04
2022-11-03T12:39:01.185Z,14.06
2022-11-03T12:40:01.174Z,14.06
2022-11-03T12:41:01.147Z,14.06
2022-11-03T12:42:01.120Z,14.06
2022-11-03T12:43:01.095Z,14.06
2022-11-03T12:44:01.146Z,14.08
2022-11-03T12:45:01.120Z,14.08
2022-11-03T12:46:01.055Z,14.06
2022-11-03T12:47:01.060Z,14.08
2022-11-03T12:48:09.600Z,14.05
2022-11-03T12:49:09.632Z,14.05
2022-11-03T12:50:01.090Z,14.05
2022-11-03T12:51:01.038Z,14.05
2022-11-03T12:52:06.780Z,14.04
2022-11-03T12:53:01.996Z,14.02
2022-11-03T12:54:00.956Z,14.02
2022-11-03T12:55:00.973Z,13.98
2022-11-03T12:56:00.968Z,13.98
2022-11-03T12:57:00.930Z,13.93
2022-11-03T12:58:00.982Z,13.91
2022-11-03T12:59:01.061Z,13.90
2022-11-03T13:00:00.901Z,13.88